createdAt,value
2022-10-09T00:04:39.362Z,5.53
2022-10-09T00:09:42.818Z,5.70
2022-10-09T00:14:47.987Z,5.97
2022-10-09T00:19:50.083Z,5.40
2022-10-09T00:24:53.582Z,6.22
2022-10-09T00:29:55.657Z,6.05
2022-10-09T00:34:57.816Z,6.13
2022-10-09T00:40:01.367Z,5.63
2022-10-09T00:45:04.663Z,6.38
2022-10-09T00:50:19.575Z,5.68
2022-10-09T00:55:27.111Z,4.80
2022-10-09T01:00:29.473Z,4.55
2022-10-09T01:05:42.089Z,5.72
2022-10-09T01:10:51.422Z,5.32
2022-10-09T01:15:56.065Z,3.00
2022-10-09T01:21:05.025Z,3.10
2022-10-09T01:26:31.958Z,3.20
2022-10-09T01:31:39.657Z,3.13
2022-10-09T01:36:42.841Z,3.00
2022-10-09T01:41:45.055Z,3.15
2022-10-09T01:46:48.918Z,3.08
2022-10-09T01:51:58.270Z,3.10
2022-10-09T01:57:03.798Z,3.70
2022-10-09T02:02:08.908Z,3.00
2022-10-09T02:07:11.725Z,3.20
2022-10-09T02:12:17.153Z,3.20
2022-10-09T02:17:27.833Z,3.53
2022-10-09T02:22:31.701Z,3.70
2022-10-09T02:27:34.520Z,3.88
2022-10-09T02:32:38.267Z,3.88
2022-10-09T02:37:43.377Z,3.30
2022-10-09T02:42:45.530Z,2.85
2022-10-09T02:47:49.061Z,2.85
2022-10-09T02:52:51.425Z,2.90
2022-10-09T02:57:53.619Z,2.80
2022-10-09T03:03:00.085Z,3.22
2022-10-09T03:08:02.216Z,2.70
2022-10-09T03:13:04.406Z,2.85
2022-10-09T03:18:07.955Z,3.00
2022-10-09T03:23:10.026Z,2.90
2022-10-09T03:28:12.161Z,2.45
2022-10-09T03:33:15.660Z,3.17
2022-10-09T03:38:18.324Z,2.70
2022-10-09T03:43:20.662Z,2.50
2022-10-09T03:48:24.982Z,3.13
2022-10-09T03:53:27.790Z,3.10
2022-10-09T03:58:29.986Z,2.83
2022-10-09T04:03:33.563Z,2.97
2022-10-09T04:08:36.882Z,2.95
2022-10-09T04:13:39.077Z,3.00
2022-10-09T04:18:44.852Z,3.00
2022-10-09T04:23:47.201Z,3.13
2022-10-09T04:28:49.732Z,2.88
2022-10-09T04:33:56.497Z,2.90
2022-10-09T04:38:58.602Z,2.50
2022-10-09T04:44:00.935Z,2.80
2022-10-09T04:49:04.801Z,2.72
2022-10-09T04:54:06.999Z,3.30
2022-10-09T04:59:09.190Z,2.70
2022-10-09T05:04:12.640Z,2.65
2022-10-09T05:09:14.754Z,3.13
2022-10-09T05:14:16.840Z,3.05
2022-10-09T05:19:20.319Z,2.90
2022-10-09T05:24:22.770Z,2.63
2022-10-09T05:29:25.026Z,2.85
2022-10-09T05:34:28.741Z,2.90
2022-10-09T05:39:32.458Z,2.83
2022-10-09T05:44:34.607Z,2.97
2022-10-09T05:49:38.052Z,2.92
2022-10-09T05:54:42.078Z,2.95
2022-10-09T05:59:44.181Z,2.80
2022-10-09T06:04:47.783Z,2.75
2022-10-09T06:09:49.911Z,2.67
2022-10-09T06:14:51.998Z,2.67
2022-10-09T06:19:55.465Z,2.97
2022-10-09T06:24:57.536Z,2.65
2022-10-09T06:29:59.843Z,2.80
2022-10-09T06:35:03.421Z,2.88
2022-10-09T06:40:06.334Z,2.33
2022-10-09T06:45:09.883Z,2.55
2022-10-09T06:50:13.357Z,2.63
2022-10-09T06:55:15.681Z,2.50
2022-10-09T07:00:23.297Z,2.88
2022-10-09T07:05:30.146Z,2.28
2022-10-09T07:10:35.375Z,2.20
2022-10-09T07:15:40.514Z,2.33
2022-10-09T07:20:48.255Z,2.30
2022-10-09T07:25:51.456Z,2.63
2022-10-09T07:30:57.599Z,1.88
2022-10-09T07:36:06.214Z,2.38
2022-10-09T07:41:13.362Z,2.10
2022-10-09T07:46:19.745Z,2.28
2022-10-09T07:51:29.680Z,2.00
2022-10-09T07:56:37.957Z,2.53
2022-10-09T08:01:42.453Z,2.40
2022-10-09T08:06:46.740Z,2.30
2022-10-09T08:11:51.555Z,2.42
2022-10-09T08:16:54.214Z,2.60
2022-10-09T08:22:03.145Z,2.78
2022-10-09T08:27:06.318Z,2.47
2022-10-09T08:32:14.829Z,2.50
2022-10-09T08:37:20.512Z,2.20
2022-10-09T08:42:30.893Z,2.28
2022-10-09T08:47:42.788Z,2.72
2022-10-09T08:52:56.701Z,2.95
2022-10-09T08:58:07.715Z,2.45
2022-10-09T09:03:41.082Z,2.88
2022-10-09T09:08:54.369Z,2.90
2022-10-09T09:14:07.387Z,3.00
2022-10-09T09:19:22.011Z,3.15
2022-10-09T09:24:36.540Z,2.88
2022-10-09T09:29:44.788Z,2.53
2022-10-09T09:34:47.517Z,2.90
2022-10-09T09:40:34.816Z,2.92
2022-10-09T09:45:22.283Z,2.25
2022-10-09T09:50:52.894Z,2.50
2022-10-09T09:56:08.518Z,2.30
2022-10-09T10:01:23.327Z,2.20
2022-10-09T10:06:29.387Z,2.00
2022-10-09T10:11:37.639Z,2.10
2022-10-09T10:16:42.310Z,2.10
2022-10-09T10:21:52.520Z,2.00
2022-10-09T10:27:02.298Z,2.20
2022-10-09T10:32:13.789Z,1.85
2022-10-09T10:37:29.736Z,2.00
2022-10-09T10:42:44.297Z,2.17
2022-10-09T10:47:53.186Z,2.00
2022-10-09T10:53:08.826Z,2.13
2022-10-09T10:58:27.917Z,2.10
2022-10-09T11:03:40.127Z,2.50
2022-10-09T11:09:01.389Z,2.40
2022-10-09T11:14:20.173Z,2.30
2022-10-09T11:19:45.363Z,2.20
2022-10-09T11:25:13.059Z,1.90
2022-10-09T11:30:18.046Z,1.80
2022-10-09T11:35:22.833Z,2.28
2022-10-09T11:40:31.253Z,2.22
2022-10-09T11:45:42.435Z,1.80
2022-10-09T11:50:54.729Z,2.00
2022-10-09T11:56:09.782Z,2.00
2022-10-09T12:01:26.500Z,1.83
2022-10-09T12:06:33.111Z,2.05
2022-10-09T12:11:36.966Z,2.05
2022-10-09T12:16:46.418Z,2.10
2022-10-09T12:22:03.674Z,2.00
2022-10-09T12:27:15.768Z,1.80
2022-10-09T12:32:25.733Z,2.00
2022-10-09T12:37:35.029Z,1.63
2022-10-09T12:42:37.176Z,1.90
2022-10-09T12:47:43.542Z,1.90
2022-10-09T12:52:54.405Z,1.60
2022-10-09T12:58:03.606Z,1.83
2022-10-09T13:03:36.926Z,1.50
2022-10-09T13:08:52.384Z,1.75
2022-10-09T13:14:04.770Z,1.90
2022-10-09T13:19:34.881Z,1.65
2022-10-09T13:24:58.388Z,1.60
2022-10-09T13:30:27.140Z,1.90
2022-10-09T13:35:35.714Z,1.67
2022-10-09T13:40:44.052Z,1.55
2022-10-09T13:45:51.600Z,1.73
2022-10-09T13:51:04.193Z,1.55
2022-10-09T13:56:29.317Z,1.80
2022-10-09T14:01:34.968Z,1.63
2022-10-09T14:07:41.163Z,1.42
2022-10-09T14:13:04.356Z,1.50
2022-10-09T14:18:13.359Z,1.90
2022-10-09T14:23:19.289Z,2.00
2022-10-09T14:28:24.371Z,1.50
2022-10-09T14:33:30.171Z,1.75
2022-10-09T14:38:44.514Z,1.67
2022-10-09T14:43:55.982Z,2.08
2022-10-09T14:49:07.669Z,2.15
2022-10-09T14:54:18.107Z,2.10
2022-10-09T14:59:24.674Z,1.90
2022-10-09T15:04:31.219Z,2.40
2022-10-09T15:09:40.073Z,2.10
2022-10-09T15:14:45.945Z,2.50
2022-10-09T15:19:48.590Z,2.20
2022-10-09T15:24:53.421Z,2.28
2022-10-09T15:29:59.584Z,1.90
2022-10-09T15:35:06.042Z,2.80
2022-10-09T15:40:14.655Z,3.30
2022-10-09T15:45:20.534Z,3.45
2022-10-09T15:50:24.671Z,11.38
2022-10-09T15:55:28.225Z,3.60
2022-10-09T16:00:30.326Z,2.80
2022-10-09T16:05:36.964Z,2.30
2022-10-09T16:10:49.032Z,1.80
2022-10-09T16:15:51.812Z,1.50
2022-10-09T16:20:53.999Z,2.05
2022-10-09T16:26:02.107Z,1.90
2022-10-09T16:31:04.473Z,1.90
2022-10-09T16:36:11.165Z,2.00
2022-10-09T16:41:17.961Z,2.38
2022-10-09T16:46:22.265Z,1.98
2022-10-09T16:51:26.122Z,4.00
2022-10-09T16:56:33.126Z,3.75
2022-10-09T17:01:37.871Z,3.17
2022-10-09T17:06:42.664Z,3.70
2022-10-09T17:11:46.634Z,3.08
2022-10-09T17:16:48.850Z,4.30
2022-10-09T17:21:51.026Z,4.10
2022-10-09T17:26:55.615Z,5.80
2022-10-09T17:31:58.474Z,5.88
2022-10-09T17:37:00.891Z,5.80
2022-10-09T17:42:21.327Z,5.30
2022-10-09T17:47:23.817Z,5.18
2022-10-09T17:52:26.221Z,6.03
2022-10-09T17:57:30.208Z,6.53
2022-10-09T18:02:33.113Z,8.25
2022-10-09T18:07:36.379Z,7.07
2022-10-09T18:12:40.869Z,6.22
2022-10-09T18:17:43.684Z,4.78
2022-10-09T18:22:47.457Z,4.72
2022-10-09T18:27:52.264Z,4.50
2022-10-09T18:32:55.695Z,6.15
2022-10-09T18:37:59.196Z,5.65
2022-10-09T18:43:04.159Z,5.22
2022-10-09T18:48:08.428Z,5.70
2022-10-09T18:53:11.584Z,5.65
2022-10-09T18:58:17.012Z,5.25
2022-10-09T19:03:20.526Z,5.35
2022-10-09T19:08:23.769Z,6.35
2022-10-09T19:13:27.509Z,12.43
2022-10-09T19:18:30.184Z,9.23
2022-10-09T19:23:32.698Z,7.00
2022-10-09T19:28:38.747Z,6.93
2022-10-09T19:33:43.743Z,5.93
2022-10-09T19:38:46.685Z,5.95
2022-10-09T19:43:51.007Z,6.75
2022-10-09T19:48:53.434Z,7.60
2022-10-09T19:53:55.938Z,10.10
2022-10-09T19:59:03.512Z,15.80
2022-10-09T20:04:08.554Z,9.85
2022-10-09T20:09:12.121Z,7.10
2022-10-09T20:14:15.656Z,5.60
2022-10-09T20:19:17.864Z,5.18
2022-10-09T20:24:20.560Z,5.25
2022-10-09T20:29:26.795Z,5.82
2022-10-09T20:34:28.942Z,5.90
2022-10-09T20:39:31.550Z,4.82
2022-10-09T20:44:35.020Z,4.97
2022-10-09T20:49:37.136Z,6.10
2022-10-09T20:54:39.291Z,4.80
2022-10-09T20:59:45.298Z,4.90
2022-10-09T21:04:47.618Z,6.45
2022-10-09T21:09:49.703Z,4.75
2022-10-09T21:14:53.180Z,3.80
2022-10-09T21:19:55.517Z,4.57
2022-10-09T21:24:57.736Z,4.03
2022-10-09T21:30:01.296Z,4.10
2022-10-09T21:35:03.459Z,4.07
2022-10-09T21:40:06.291Z,4.20
2022-10-09T21:45:12.454Z,4.47
2022-10-09T21:50:14.537Z,4.35
2022-10-09T21:55:16.755Z,3.90
2022-10-09T22:00:20.601Z,5.25
2022-10-09T22:05:22.740Z,4.68
2022-10-09T22:10:24.845Z,4.55
2022-10-09T22:15:28.475Z,4.60
2022-10-09T22:20:30.716Z,5.25
2022-10-09T22:25:32.986Z,4.50
2022-10-09T22:30:36.778Z,4.40
2022-10-09T22:35:38.882Z,4.40
2022-10-09T22:40:43.854Z,4.60
2022-10-09T22:45:50.505Z,4.43
2022-10-09T22:50:52.597Z,4.10
2022-10-09T22:55:54.854Z,4.60
2022-10-09T23:00:58.361Z,4.43
2022-10-09T23:06:08.036Z,3.90
2022-10-09T23:11:11.283Z,4.00
2022-10-09T23:16:16.256Z,3.97
2022-10-09T23:21:21.651Z,3.95
2022-10-09T23:26:25.536Z,3.92
2022-10-09T23:31:30.527Z,4.25
2022-10-09T23:36:32.960Z,4.22
2022-10-09T23:41:35.797Z,4.30
2022-10-09T23:46:39.960Z,4.20
2022-10-09T23:51:42.080Z,4.10
2022-10-09T23:56:44.232Z,3.80
